Time;durP1;ratioP1;P1;durP2;ratioP2;P2;SDS_P1;SDS_P2;PMS_P1;PMS_P2;Temp;Humidity;BMP_temperature;BMP_pressure;BME280_temperature;BME280_humidity;BME280_pressure;Samples;Min_cycle;Max_cycle;Signal;HPM_P1;HPM_P2
2021/12/19 00:09:29;;;;;;;59.58;38.22;;;26.10;99.90;;;;;;5075517;28;20374;-67
2021/12/19 00:11:57;;;;;;;33.15;21.42;;;26.10;99.90;;;;;;5076090;28;20020;-67
2021/12/19 00:14:23;;;;;;;17.23;6.90;;;26.00;99.90;;;;;;5071232;28;20040;-67
2021/12/19 00:16:51;;;;;;;37.63;19.80;;;25.90;99.90;;;;;;5066431;28;20017;-66
2021/12/19 00:19:18;;;;;;;13.90;8.88;;;26.10;99.90;;;;;;5074027;28;20033;-66
2021/12/19 00:21:45;;;;;;;14.68;7.18;;;26.10;99.90;;;;;;5075878;28;20025;-65
2021/12/19 00:24:12;;;;;;;18.00;9.18;;;26.10;99.90;;;;;;5075193;28;20024;-65
2021/12/19 00:26:39;;;;;;;8.85;5.22;;;26.10;99.90;;;;;;5074951;28;20029;-65
2021/12/19 00:29:07;;;;;;;20.52;4.60;;;26.10;99.90;;;;;;5074928;28;20060;-66
2021/12/19 00:31:34;;;;;;;12.52;4.15;;;26.10;99.90;;;;;;5075685;28;20051;-65
2021/12/19 00:34:02;;;;;;;11.25;4.72;;;26.10;99.90;;;;;;5075122;28;20489;-65
2021/12/19 00:36:29;;;;;;;13.52;5.30;;;26.10;99.90;;;;;;5075093;28;20481;-66
2021/12/19 00:38:56;;;;;;;17.38;11.32;;;26.10;99.90;;;;;;5075513;28;20021;-65
2021/12/19 00:41:23;;;;;;;16.38;10.13;;;26.20;99.90;;;;;;5075496;28;20123;-65
2021/12/19 00:43:55;;;;;;;10.38;5.15;;;26.20;99.90;;;;;;5074924;28;20024;-66
2021/12/19 00:46:24;;;;;;;13.82;5.82;;;26.20;99.90;;;;;;5074844;28;20032;-65
2021/12/19 00:48:53;;;;;;;19.25;11.77;;;26.20;99.90;;;;;;5074934;28;20412;-65
2021/12/19 00:51:23;;;;;;;12.40;7.53;;;26.20;99.90;;;;;;5074809;28;20028;-66
2021/12/19 00:53:51;;;;;;;17.00;6.60;;;26.20;99.90;;;;;;5075132;28;20100;-65
2021/12/19 00:56:18;;;;;;;16.15;5.93;;;26.20;99.90;;;;;;5074964;28;20037;-64
2021/12/19 00:58:45;;;;;;;9.77;6.10;;;26.30;99.90;;;;;;5074984;28;20095;-65
2021/12/19 01:01:15;;;;;;;11.27;6.32;;;26.30;99.90;;;;;;5074932;28;20028;-65
2021/12/19 01:03:44;;;;;;;35.42;6.88;;;26.40;99.90;;;;;;5074926;28;20024;-65
2021/12/19 01:06:12;;;;;;;18.08;7.90;;;26.50;99.90;;;;;;5074614;28;20032;-65
2021/12/19 01:08:39;;;;;;;24.67;15.77;;;26.50;99.90;;;;;;5074441;28;20035;-65
2021/12/19 01:11:06;;;;;;;13.50;8.00;;;26.60;99.90;;;;;;5074789;28;20032;-64
2021/12/19 01:13:33;;;;;;;27.92;7.32;;;26.70;99.90;;;;;;5074916;28;20111;-66
2021/12/19 01:16:01;;;;;;;14.93;7.07;;;26.70;99.90;;;;;;5074458;28;20043;-66
2021/12/19 01:18:28;;;;;;;26.75;12.15;;;26.80;99.90;;;;;;5074305;28;20066;-65
2021/12/19 01:20:55;;;;;;;16.00;8.95;;;26.80;99.90;;;;;;5074294;28;20044;-65
2021/12/19 01:23:23;;;;;;;18.00;6.68;;;26.80;99.90;;;;;;5074299;28;20053;-65
2021/12/19 01:25:50;;;;;;;15.40;6.32;;;26.90;99.90;;;;;;5074312;28;20044;-64
2021/12/19 01:28:18;;;;;;;30.92;8.13;;;27.00;99.90;;;;;;5062528;28;20029;-65
2021/12/19 01:30:46;;;;;;;16.02;7.40;;;27.00;99.90;;;;;;5054699;28;20082;-65
2021/12/19 01:33:13;;;;;;;13.93;5.65;;;27.00;99.90;;;;;;5073811;28;20112;-64
2021/12/19 01:35:39;;;;;;;12.77;5.05;;;27.00;99.90;;;;;;5074343;28;20028;-64
2021/12/19 01:38:06;;;;;;;22.35;15.65;;;27.00;99.90;;;;;;5073190;28;20017;-64
2021/12/19 01:40:33;;;;;;;18.38;10.25;;;27.00;99.90;;;;;;5074024;28;20122;-64
2021/12/19 01:43:01;;;;;;;12.70;6.10;;;27.10;99.90;;;;;;5073979;28;20119;-65
2021/12/19 01:45:31;;;;;;;29.95;14.75;;;27.10;99.90;;;;;;5074021;28;20473;-65
2021/12/19 01:48:00;;;;;;;11.57;6.53;;;27.20;99.90;;;;;;5073343;28;20031;-65
2021/12/19 01:50:28;;;;;;;20.98;8.38;;;27.20;99.90;;;;;;5073867;28;20021;-65
2021/12/19 01:52:55;;;;;;;13.52;10.18;;;27.20;99.90;;;;;;5073719;28;20055;-65
2021/12/19 01:55:21;;;;;;;15.23;7.00;;;27.20;99.90;;;;;;5073527;28;20024;-65
2021/12/19 01:57:48;;;;;;;16.52;7.43;;;27.20;99.90;;;;;;5073075;28;20073;-65
2021/12/19 02:00:32;;;;;;;12.40;7.13;;;27.20;99.90;;;;;;5062501;28;20025;-64
2021/12/19 02:02:59;;;;;;;15.68;9.57;;;27.20;99.90;;;;;;5054532;28;20079;-64
2021/12/19 02:05:27;;;;;;;10.60;5.00;;;27.30;99.90;;;;;;5067404;28;20025;-64
2021/12/19 02:07:56;;;;;;;8.30;3.88;;;27.30;99.90;;;;;;5064373;28;20439;-64
2021/12/19 02:10:29;;;;;;;15.20;4.95;;;27.40;99.90;;;;;;5058699;28;20133;-65
2021/12/19 02:12:58;;;;;;;8.55;4.32;;;27.50;99.90;;;;;;5063880;28;20036;-65
2021/12/19 02:15:27;;;;;;;116.38;85.25;;;27.70;99.90;;;;;;5066642;28;20087;-65
2021/12/19 02:17:58;;;;;;;9.00;4.85;;;27.70;99.90;;;;;;5072168;28;20085;-65
2021/12/19 02:20:31;;;;;;;44.20;27.17;;;27.70;99.90;;;;;;5058899;28;20024;-65
2021/12/19 02:22:58;;;;;;;52.33;29.35;;;27.80;99.90;;;;;;5069969;28;20012;-65
2021/12/19 02:25:25;;;;;;;61.42;36.60;;;27.90;99.90;;;;;;5059434;28;20032;-65
2021/12/19 02:27:52;;;;;;;102.95;71.63;;;27.80;99.90;;;;;;5069742;28;20027;-66
2021/12/19 02:30:18;;;;;;;17.02;8.55;;;27.90;99.90;;;;;;5065590;28;20052;-65
2021/12/19 02:32:45;;;;;;;12.23;4.72;;;27.90;99.90;;;;;;5061170;28;20473;-65
2021/12/19 02:35:18;;;;;;;13.30;6.38;;;28.00;99.90;;;;;;5061253;28;20065;-65
2021/12/19 02:38:19;;;;;;;15.38;5.22;;;28.00;99.90;;;;;;5069400;28;20103;-65
2021/12/19 02:48:12;;;;;;;6.05;2.75;;;28.10;99.90;;;;;;5064578;28;20024;-65
2021/12/19 02:50:48;;;;;;;9.65;3.38;;;28.20;99.90;;;;;;5065926;28;20052;-65
2021/12/19 02:53:23;;;;;;;6.28;3.17;;;28.30;99.90;;;;;;5067155;28;20035;-64
2021/12/19 02:55:50;;;;;;;7.78;3.15;;;28.30;99.90;;;;;;5066367;28;20384;-66
2021/12/19 02:58:17;;;;;;;9.40;3.47;;;28.30;99.90;;;;;;5067475;28;20495;-66
2021/12/19 03:00:44;;;;;;;11.52;3.25;;;28.30;99.90;;;;;;5065956;28;20535;-65
2021/12/19 03:03:11;;;;;;;71.97;45.60;;;28.30;99.90;;;;;;5065117;28;20031;-65
2021/12/19 03:05:37;;;;;;;48.15;35.63;;;28.30;99.90;;;;;;5070207;28;20040;-65
2021/12/19 03:08:08;;;;;;;16.75;10.75;;;28.40;99.90;;;;;;5067750;28;20024;-66
2021/12/19 03:18:31;;;;;;;66.53;54.25;;;28.60;99.90;;;;;;5066481;28;20502;-66
2021/12/19 03:20:58;;;;;;;8.27;5.07;;;28.70;99.90;;;;;;5065068;28;20104;-65
2021/12/19 03:23:25;;;;;;;9.35;3.20;;;28.80;99.90;;;;;;5066813;28;20108;-66
2021/12/19 03:25:52;;;;;;;8.15;3.40;;;28.80;99.90;;;;;;5067623;28;20032;-66
2021/12/19 03:28:19;;;;;;;8.90;3.40;;;28.80;99.90;;;;;;5066668;28;20043;-66
2021/12/19 03:30:47;;;;;;;5.55;3.40;;;28.90;99.90;;;;;;5065756;28;20024;-65
2021/12/19 03:33:15;;;;;;;9.00;3.67;;;29.00;99.90;;;;;;5047125;28;20405;-66
2021/12/19 03:35:42;;;;;;;4.85;3.22;;;29.00;99.90;;;;;;5065158;28;20028;-66
2021/12/19 03:38:11;;;;;;;9.13;3.70;;;29.10;99.90;;;;;;5069350;28;20020;-65
2021/12/19 03:40:42;;;;;;;8.65;3.80;;;29.10;99.90;;;;;;5069186;28;20021;-65
2021/12/19 03:43:15;;;;;;;19.33;4.47;;;29.00;99.90;;;;;;5066563;28;20043;-67
2021/12/19 03:45:43;;;;;;;17.63;5.13;;;29.00;99.90;;;;;;5065200;28;20091;-66
2021/12/19 03:48:13;;;;;;;11.60;3.83;;;29.00;99.90;;;;;;5067070;28;20445;-65
2021/12/19 03:50:43;;;;;;;9.00;3.92;;;29.00;99.90;;;;;;5064604;28;20033;-64
2021/12/19 03:53:11;;;;;;;7.00;3.72;;;29.10;99.90;;;;;;5066871;28;20027;-63
2021/12/19 03:55:38;;;;;;;10.65;4.30;;;29.20;99.90;;;;;;5073025;28;20043;-66
2021/12/19 03:58:05;;;;;;;7.75;3.55;;;29.20;99.90;;;;;;5066700;28;20029;-67
2021/12/19 04:00:32;;;;;;;6.20;3.50;;;29.20;99.90;;;;;;5064590;28;20059;-63
2021/12/19 04:03:04;;;;;;;10.20;4.22;;;29.20;99.90;;;;;;5065984;28;20028;-65
2021/12/19 04:05:31;;;;;;;9.35;3.90;;;29.30;99.90;;;;;;5063839;28;20029;-65
2021/12/19 04:07:58;;;;;;;6.75;3.58;;;29.30;99.90;;;;;;5064213;28;20029;-64
2021/12/19 04:10:29;;;;;;;18.42;3.80;;;29.30;99.90;;;;;;5069002;28;20131;-65
2021/12/19 04:12:57;;;;;;;11.83;3.90;;;29.30;99.90;;;;;;5065015;28;20036;-65
2021/12/19 04:15:24;;;;;;;11.80;3.90;;;29.30;99.90;;;;;;5064730;28;20101;-65
2021/12/19 04:17:51;;;;;;;9.45;3.67;;;29.40;99.90;;;;;;5063503;28;20023;-65
2021/12/19 04:20:21;;;;;;;5.72;3.30;;;29.50;99.90;;;;;;5069138;28;20064;-65
2021/12/19 04:22:49;;;;;;;10.10;4.47;;;29.40;99.90;;;;;;5059375;28;20028;-65
2021/12/19 04:25:17;;;;;;;25.27;5.65;;;29.40;99.90;;;;;;5071205;28;20110;-65
2021/12/19 04:27:45;;;;;;;16.40;5.38;;;29.40;99.90;;;;;;5074969;28;20416;-66
2021/12/19 04:30:17;;;;;;;13.43;5.35;;;29.40;99.90;;;;;;5075240;28;20036;-66
2021/12/19 04:32:47;;;;;;;4.57;3.45;;;29.50;99.90;;;;;;5075178;28;20028;-66
2021/12/19 04:35:14;;;;;;;5.90;3.50;;;29.50;99.90;;;;;;5068417;28;20575;-64
2021/12/19 04:40:23;;;;;;;11.10;7.22;;;29.50;99.90;;;;;;5075179;28;20016;-66
2021/12/19 04:44:00;;;;;;;19.85;7.00;;;29.50;99.90;;;;;;5074848;28;20389;-64
2021/12/19 04:51:09;;;;;;;24.42;12.15;;;29.70;99.90;;;;;;5069102;28;20021;-65
2021/12/19 04:56:31;;;;;;;11.45;7.10;;;29.70;99.90;;;;;;5073192;28;20489;-65
2021/12/19 05:04:41;;;;;;;11.95;7.45;;;29.90;99.90;;;;;;5057965;28;20021;-66
2021/12/19 05:14:55;;;;;;;19.17;9.93;;;30.00;99.90;;;;;;5068083;28;20055;-65
2021/12/19 05:17:26;;;;;;;16.55;11.00;;;30.00;99.90;;;;;;5054699;28;20021;-64
2021/12/19 05:22:35;;;;;;;51.90;29.45;;;30.10;99.90;;;;;;5062521;28;20555;-65
2021/12/19 05:25:14;;;;;;;52.47;38.03;;;30.10;99.90;;;;;;5058908;28;20032;-66
2021/12/19 05:27:50;;;;;;;35.03;23.88;;;30.20;99.90;;;;;;5071265;28;20032;-65
2021/12/19 05:30:18;;;;;;;23.38;15.45;;;30.30;99.90;;;;;;5053749;28;20470;-65
2021/12/19 05:32:46;;;;;;;29.52;15.50;;;30.30;99.90;;;;;;5061646;28;20158;-66
2021/12/19 05:35:17;;;;;;;22.80;12.63;;;30.30;99.90;;;;;;5068959;28;20083;-66
2021/12/19 05:45:39;;;;;;;56.22;27.00;;;30.40;99.90;;;;;;5062539;28;20033;-69
2021/12/19 05:48:05;;;;;;;37.45;18.65;;;30.40;99.90;;;;;;5073362;28;20103;-67
2021/12/19 05:50:32;;;;;;;22.60;12.40;;;30.40;99.90;;;;;;5073782;28;20082;-67
2021/12/19 05:52:59;;;;;;;18.55;12.50;;;30.50;99.90;;;;;;5073831;28;20354;-65
2021/12/19 05:55:26;;;;;;;23.80;12.85;;;30.50;99.90;;;;;;5073423;28;20384;-66
2021/12/19 05:57:52;;;;;;;19.17;12.23;;;30.50;99.90;;;;;;5074096;28;20033;-66
2021/12/19 06:00:20;;;;;;;19.95;13.18;;;30.50;99.90;;;;;;5073602;28;20043;-67
2021/12/19 06:02:47;;;;;;;24.83;16.25;;;30.50;99.90;;;;;;5073453;28;20029;-66
2021/12/19 06:05:14;;;;;;;28.90;17.08;;;30.50;99.90;;;;;;5073858;28;20024;-66
2021/12/19 06:07:42;;;;;;;37.67;17.33;;;30.50;99.90;;;;;;5066097;28;20020;-65
2021/12/19 06:10:10;;;;;;;34.60;16.08;;;30.60;99.90;;;;;;5063297;28;20508;-66
2021/12/19 06:12:37;;;;;;;19.63;14.25;;;30.50;99.90;;;;;;5061682;28;20033;-66
2021/12/19 06:15:08;;;;;;;25.80;16.13;;;30.50;99.90;;;;;;5062557;28;20495;-66
2021/12/19 06:17:36;;;;;;;22.13;13.95;;;30.60;99.90;;;;;;5063748;28;20021;-65
2021/12/19 06:20:03;;;;;;;19.58;12.38;;;30.60;99.90;;;;;;5062440;28;20043;-67
2021/12/19 06:22:30;;;;;;;23.00;14.55;;;30.70;99.90;;;;;;5059359;28;20021;-67
2021/12/19 06:24:57;;;;;;;20.05;14.38;;;30.70;99.90;;;;;;5052828;28;20075;-66
2021/12/19 06:27:23;;;;;;;23.02;15.55;;;30.80;99.90;;;;;;5069133;28;20032;-66
2021/12/19 06:29:50;;;;;;;25.60;15.05;;;30.70;99.90;;;;;;5073402;28;20052;-66
2021/12/19 06:32:18;;;;;;;21.63;11.73;;;30.60;99.90;;;;;;5073098;28;20094;-67
2021/12/19 06:34:45;;;;;;;17.92;9.20;;;30.60;99.90;;;;;;5073073;28;20560;-67
2021/12/19 06:37:12;;;;;;;14.95;8.13;;;30.70;99.90;;;;;;5073262;28;20159;-66
2021/12/19 06:39:40;;;;;;;17.52;8.65;;;30.70;99.90;;;;;;5073062;28;20027;-66
2021/12/19 06:42:09;;;;;;;21.85;13.45;;;30.80;99.90;;;;;;5073096;28;20016;-66
2021/12/19 06:44:36;;;;;;;17.88;14.40;;;30.80;99.90;;;;;;5071996;28;20143;-66
2021/12/19 06:47:04;;;;;;;23.00;14.43;;;30.80;99.90;;;;;;5072898;28;20017;-65
2021/12/19 06:49:31;;;;;;;21.13;15.10;;;30.90;99.90;;;;;;5073123;28;20054;-66
2021/12/19 06:51:57;;;;;;;19.35;13.10;;;30.90;99.90;;;;;;5073003;28;20024;-67
2021/12/19 06:54:24;;;;;;;23.05;12.60;;;30.90;99.90;;;;;;5072758;28;20028;-66
2021/12/19 06:56:51;;;;;;;25.05;12.00;;;30.90;99.90;;;;;;5073170;28;20021;-67
2021/12/19 06:59:18;;;;;;;13.90;9.35;;;31.00;99.90;;;;;;5072245;28;20027;-66
2021/12/19 07:01:44;;;;;;;10.80;8.32;;;31.00;99.90;;;;;;5072844;28;20017;-67
2021/12/19 07:04:11;;;;;;;11.18;8.30;;;31.10;99.90;;;;;;5073083;28;20044;-66
2021/12/19 07:06:38;;;;;;;12.30;9.52;;;31.00;99.90;;;;;;5073220;28;20050;-67
2021/12/19 07:09:04;;;;;;;12.52;9.10;;;31.00;99.90;;;;;;5072256;28;20054;-64
2021/12/19 07:11:31;;;;;;;10.45;6.50;;;31.00;99.90;;;;;;5053097;28;20555;-66
2021/12/19 07:13:58;;;;;;;12.23;5.65;;;31.00;99.90;;;;;;5052777;28;20028;-66
2021/12/19 07:16:24;;;;;;;8.52;4.20;;;31.00;99.90;;;;;;5052652;28;20025;-66
2021/12/19 07:18:51;;;;;;;11.48;7.13;;;31.00;99.90;;;;;;5052972;28;20424;-66
2021/12/19 07:21:18;;;;;;;10.60;6.18;;;31.00;99.90;;;;;;5052869;28;20013;-66
2021/12/19 07:23:44;;;;;;;6.57;4.55;;;30.90;99.90;;;;;;5052590;28;20032;-65
2021/12/19 07:26:12;;;;;;;7.75;4.75;;;30.90;99.90;;;;;;5052897;28;20080;-65
2021/12/19 07:28:40;;;;;;;8.25;4.68;;;31.00;99.90;;;;;;5052628;28;20024;-66
2021/12/19 07:31:07;;;;;;;10.20;4.25;;;31.00;99.90;;;;;;5052763;28;20021;-65
2021/12/19 07:33:34;;;;;;;9.07;4.00;;;30.90;99.90;;;;;;5052909;28;20555;-65
2021/12/19 07:36:01;;;;;;;5.25;3.75;;;30.90;99.90;;;;;;5052775;28;20021;-65
2021/12/19 07:38:40;;;;;;;11.15;3.92;;;31.00;99.90;;;;;;5056148;28;20021;-64
2021/12/19 07:41:07;;;;;;;5.53;3.72;;;31.00;99.90;;;;;;5056278;28;20484;-66
2021/12/19 07:43:34;;;;;;;9.07;3.25;;;31.00;99.50;;;;;;5056215;28;20028;-66
2021/12/19 07:46:00;;;;;;;5.78;3.40;;;31.00;99.90;;;;;;5056290;28;20055;-66
2021/12/19 07:48:27;;;;;;;6.38;3.33;;;31.00;99.90;;;;;;5056463;28;20032;-66
2021/12/19 07:50:54;;;;;;;5.15;3.40;;;31.00;99.90;;;;;;5056190;28;20535;-67
2021/12/19 07:53:21;;;;;;;6.95;3.75;;;31.00;99.90;;;;;;5055809;28;20025;-65
2021/12/19 07:55:47;;;;;;;5.03;3.65;;;31.00;99.90;;;;;;5056424;28;20029;-66
2021/12/19 07:58:14;;;;;;;5.70;2.92;;;31.00;99.90;;;;;;5056236;28;20098;-66
2021/12/19 08:00:41;;;;;;;10.20;3.80;;;30.90;99.90;;;;;;5055860;28;20025;-66
2021/12/19 08:03:07;;;;;;;12.60;7.68;;;30.80;99.90;;;;;;5055911;28;20013;-67
2021/12/19 08:05:34;;;;;;;9.07;5.00;;;30.80;99.90;;;;;;5055848;28;20020;-65
2021/12/19 08:08:03;;;;;;;9.30;5.95;;;30.80;99.90;;;;;;5055663;28;20040;-66
2021/12/19 08:13:03;;;;;;;6.10;4.10;;;30.90;99.90;;;;;;5055627;28;20029;-67
2021/12/19 08:15:30;;;;;;;8.73;4.60;;;30.90;99.90;;;;;;5055203;28;20029;-67
2021/12/19 08:17:57;;;;;;;14.57;4.28;;;30.90;99.90;;;;;;5055962;28;20025;-66
2021/12/19 08:20:25;;;;;;;12.80;4.97;;;30.80;99.90;;;;;;5055576;28;20013;-67
2021/12/19 08:22:53;;;;;;;11.82;4.70;;;30.90;99.90;;;;;;5055345;28;20017;-66
2021/12/19 08:25:20;;;;;;;10.77;5.55;;;30.80;99.90;;;;;;5055373;28;20021;-65
2021/12/19 08:27:46;;;;;;;11.45;7.25;;;30.80;99.90;;;;;;5055649;28;20454;-67
2021/12/19 08:30:14;;;;;;;15.55;8.27;;;30.70;99.90;;;;;;5055043;28;20060;-65
2021/12/19 08:32:41;;;;;;;9.23;5.43;;;30.60;99.90;;;;;;5055518;28;20025;-65
2021/12/19 08:35:09;;;;;;;9.00;5.18;;;30.60;99.90;;;;;;5055425;28;20474;-65
2021/12/19 08:37:36;;;;;;;17.70;8.30;;;30.60;99.90;;;;;;5055155;28;20104;-65
2021/12/19 08:40:05;;;;;;;10.15;4.68;;;30.50;99.90;;;;;;5055211;28;20025;-65
2021/12/19 08:42:33;;;;;;;11.05;5.57;;;30.40;99.90;;;;;;5055366;28;20025;-65
2021/12/19 08:45:00;;;;;;;12.82;5.32;;;30.40;99.90;;;;;;5054811;28;20028;-64
2021/12/19 08:47:27;;;;;;;12.43;6.63;;;30.30;99.90;;;;;;5054787;28;20023;-65
2021/12/19 08:49:54;;;;;;;22.20;11.65;;;30.20;99.90;;;;;;5054512;28;20100;-65
2021/12/19 08:52:20;;;;;;;12.50;7.72;;;30.20;99.90;;;;;;5054841;28;20478;-65
2021/12/19 08:54:47;;;;;;;11.48;5.72;;;30.10;99.90;;;;;;5054894;28;20025;-67
2021/12/19 08:57:14;;;;;;;15.40;7.00;;;29.90;99.90;;;;;;5054803;28;20378;-65
2021/12/19 08:59:42;;;;;;;14.18;7.50;;;29.90;99.90;;;;;;5054709;28;20052;-65
2021/12/19 09:02:09;;;;;;;26.08;13.13;;;29.70;99.90;;;;;;5054819;28;20049;-65
2021/12/19 09:04:36;;;;;;;19.08;8.07;;;29.70;99.90;;;;;;5054914;28;20491;-66
2021/12/19 09:07:03;;;;;;;35.95;12.30;;;29.60;99.90;;;;;;5054023;28;20520;-66
2021/12/19 09:09:29;;;;;;;14.65;6.60;;;29.50;99.90;;;;;;5054420;28;20087;-66
2021/12/19 09:11:56;;;;;;;34.55;14.40;;;29.60;99.90;;;;;;5054757;28;20029;-67
2021/12/19 09:14:23;;;;;;;81.38;54.05;;;29.60;99.90;;;;;;5054454;28;20090;-66
2021/12/19 09:16:49;;;;;;;78.07;52.10;;;29.70;99.90;;;;;;5054814;28;20021;-66
2021/12/19 09:19:16;;;;;;;53.85;39.47;;;29.70;99.90;;;;;;5054151;28;20482;-66
2021/12/19 09:21:43;;;;;;;40.97;24.73;;;29.80;99.90;;;;;;5054429;28;20056;-67
2021/12/19 09:24:10;;;;;;;135.75;83.55;;;29.70;99.90;;;;;;5054223;28;20397;-65
2021/12/19 09:26:37;;;;;;;68.43;35.08;;;29.60;99.90;;;;;;5060810;28;20078;-66
2021/12/19 09:29:04;;;;;;;52.25;25.85;;;29.60;99.90;;;;;;5073400;28;20028;-66
2021/12/19 09:31:31;;;;;;;40.65;22.95;;;29.50;99.90;;;;;;5063982;28;20025;-64
2021/12/19 09:33:57;;;;;;;36.63;20.63;;;29.40;99.90;;;;;;5056641;28;21024;-65
2021/12/19 09:36:24;;;;;;;28.73;16.38;;;29.30;99.90;;;;;;5064508;28;20062;-65
2021/12/19 09:38:51;;;;;;;32.60;14.43;;;29.20;99.90;;;;;;5063904;28;20118;-66
2021/12/19 09:41:28;;;;;;;29.33;19.00;;;29.30;99.90;;;;;;5062022;28;20021;-66
2021/12/19 09:43:58;;;;;;;38.65;24.25;;;29.30;99.90;;;;;;5062269;28;20029;-65
2021/12/19 09:46:29;;;;;;;28.15;18.90;;;29.30;99.90;;;;;;5062339;28;20036;-65
2021/12/19 09:48:57;;;;;;;18.10;11.40;;;29.20;99.90;;;;;;5061980;28;20081;-64
2021/12/19 09:51:23;;;;;;;22.88;10.63;;;29.10;99.90;;;;;;5074023;28;20119;-66
2021/12/19 09:53:50;;;;;;;17.40;10.93;;;29.00;99.90;;;;;;5074001;28;20025;-65
2021/12/19 09:56:17;;;;;;;12.13;6.75;;;28.90;99.90;;;;;;5073867;28;20025;-64
2021/12/19 09:58:44;;;;;;;9.77;6.32;;;28.90;99.90;;;;;;5074078;28;20050;-66
2021/12/19 10:01:13;;;;;;;13.35;6.68;;;29.10;99.90;;;;;;5073340;28;20025;-66
2021/12/19 10:03:40;;;;;;;14.05;6.72;;;29.10;99.90;;;;;;5072963;28;20024;-64
2021/12/19 10:06:15;;;;;;;11.18;5.95;;;29.20;99.90;;;;;;5073195;28;20104;-66
2021/12/19 10:08:42;;;;;;;22.58;7.85;;;29.30;99.90;;;;;;5073053;28;20099;-65
2021/12/19 10:11:46;;;;;;;12.88;6.90;;;29.40;99.90;;;;;;5071728;28;20509;-66
2021/12/19 10:14:32;;;;;;;11.40;7.22;;;29.50;99.90;;;;;;5063142;28;20072;-64
2021/12/19 10:17:02;;;;;;;11.27;6.28;;;29.50;99.90;;;;;;5052102;28;20060;-65
2021/12/19 10:19:45;;;;;;;18.27;11.63;;;29.40;99.90;;;;;;5063411;28;20028;-64
2021/12/19 10:22:29;;;;;;;57.30;40.67;;;29.40;99.90;;;;;;5074033;28;20027;-65
2021/12/19 10:24:58;;;;;;;34.35;24.25;;;29.50;99.90;;;;;;5073394;28;20032;-65
2021/12/19 10:27:37;;;;;;;34.22;26.00;;;29.50;99.90;;;;;;5073547;28;20214;-65
2021/12/19 10:30:09;;;;;;;22.10;13.95;;;29.60;99.90;;;;;;5072743;28;20020;-66
2021/12/19 10:32:36;;;;;;;17.98;8.52;;;29.60;99.90;;;;;;5072948;28;20025;-65
2021/12/19 10:35:16;;;;;;;14.95;9.18;;;29.50;99.90;;;;;;5073361;28;20381;-65
2021/12/19 10:37:43;;;;;;;16.65;10.68;;;29.50;99.90;;;;;;5072006;28;20056;-64
2021/12/19 10:40:10;;;;;;;23.63;12.25;;;29.50;99.90;;;;;;5065236;28;20017;-65
2021/12/19 10:42:59;;;;;;;26.52;15.68;;;29.40;99.90;;;;;;5065256;28;20021;-63
2021/12/19 10:45:35;;;;;;;31.88;18.77;;;29.40;99.90;;;;;;5061557;28;20040;-65
2021/12/19 10:48:18;;;;;;;32.53;18.90;;;29.40;99.90;;;;;;5058939;28;20091;-63
2021/12/19 10:50:51;;;;;;;34.20;15.48;;;29.40;99.90;;;;;;5065671;28;20029;-65
2021/12/19 10:53:23;;;;;;;188.23;148.43;;;29.30;99.90;;;;;;5068789;28;20020;-65
2021/12/19 10:55:50;;;;;;;36.78;23.77;;;29.40;99.90;;;;;;5063010;28;20028;-64
2021/12/19 10:58:31;;;;;;;35.88;19.77;;;29.40;99.90;;;;;;5061993;28;20017;-63
2021/12/19 11:01:14;;;;;;;22.17;13.55;;;29.40;99.90;;;;;;5063245;28;20032;-65
2021/12/19 11:03:51;;;;;;;34.78;19.30;;;29.50;99.90;;;;;;5063707;28;20021;-64
2021/12/19 11:06:29;;;;;;;36.67;20.70;;;29.50;99.90;;;;;;5061452;28;20051;-65
2021/12/19 11:08:58;;;;;;;138.02;108.00;;;29.50;99.90;;;;;;5062328;28;20083;-64
2021/12/19 11:11:33;;;;;;;131.15;81.60;;;29.50;99.90;;;;;;5070100;28;20047;-65
2021/12/19 11:14:02;;;;;;;50.40;32.97;;;29.50;99.90;;;;;;5066517;28;20021;-65
2021/12/19 11:16:29;;;;;;;36.35;22.30;;;29.50;99.90;;;;;;5066248;28;20033;-66
2021/12/19 11:18:55;;;;;;;33.25;21.70;;;29.50;99.90;;;;;;5065701;28;20100;-64
2021/12/19 11:21:22;;;;;;;34.42;19.75;;;29.50;99.90;;;;;;5070301;28;20024;-65
2021/12/19 11:23:50;;;;;;;37.85;18.45;;;29.50;99.90;;;;;;5072293;28;20025;-65
2021/12/19 11:26:20;;;;;;;32.55;19.88;;;29.50;99.90;;;;;;5068571;28;20036;-65
2021/12/19 11:28:49;;;;;;;29.95;18.13;;;29.50;99.90;;;;;;5058835;28;20024;-65
2021/12/19 11:31:16;;;;;;;34.42;19.77;;;29.50;99.90;;;;;;5064221;28;20036;-66
2021/12/19 11:34:07;;;;;;;83.68;52.35;;;29.50;99.90;;;;;;5067410;28;20048;-67
2021/12/19 11:36:39;;;;;;;41.58;19.50;;;29.50;99.90;;;;;;5066488;28;20021;-66
2021/12/19 11:39:08;;;;;;;180.52;146.65;;;29.50;99.90;;;;;;5070965;28;20020;-65
2021/12/19 11:41:35;;;;;;;50.15;27.73;;;29.50;99.90;;;;;;5068730;28;20382;-66
2021/12/19 11:44:06;;;;;;;62.75;33.83;;;29.50;99.90;;;;;;5069226;28;20021;-66
2021/12/19 11:46:55;;;;;;;106.05;70.53;;;29.50;99.90;;;;;;5065171;28;20028;-66
2021/12/19 11:49:25;;;;;;;59.65;42.63;;;29.50;99.90;;;;;;5068145;28;20054;-67
2021/12/19 11:52:15;;;;;;;51.03;25.67;;;29.40;99.90;;;;;;5062415;28;20033;-66
2021/12/19 11:54:42;;;;;;;46.65;22.92;;;29.40;99.90;;;;;;5072508;28;20111;-66
2021/12/19 11:57:09;;;;;;;33.55;21.17;;;29.30;99.90;;;;;;5070457;28;20477;-65
2021/12/19 11:59:39;;;;;;;40.25;21.17;;;29.20;99.90;;;;;;5072298;28;20032;-65
2021/12/19 12:02:21;;;;;;;35.00;19.70;;;29.20;99.90;;;;;;5062541;28;20020;-64
2021/12/19 12:04:59;;;;;;;;;;;29.20;99.90;;;;;;5065848;28;20047;-65
2021/12/19 12:07:26;;;;;;;34.92;21.42;;;29.20;99.90;;;;;;5065451;28;19909;-66
2021/12/19 12:09:56;;;;;;;32.20;22.35;;;29.20;99.90;;;;;;5064523;28;20044;-65
2021/12/19 12:12:32;;;;;;;37.35;21.33;;;29.20;99.90;;;;;;5066142;28;20035;-65
2021/12/19 12:15:04;;;;;;;34.10;20.42;;;29.20;99.90;;;;;;5068564;28;20362;-66
2021/12/19 12:17:37;;;;;;;27.13;16.42;;;29.10;99.90;;;;;;5070609;28;20485;-65
2021/12/19 12:20:17;;;;;;;30.50;16.27;;;29.10;99.90;;;;;;5068724;28;20526;-65
2021/12/19 12:23:00;;;;;;;35.65;15.57;;;29.10;99.90;;;;;;5065946;28;20099;-66
2021/12/19 12:25:32;;;;;;;304.75;239.05;;;29.10;99.90;;;;;;5067932;28;20029;-65
2021/12/19 12:28:09;;;;;;;58.90;33.53;;;29.10;99.90;;;;;;5063879;28;20017;-65
2021/12/19 12:30:45;;;;;;;38.10;25.90;;;29.10;99.90;;;;;;5065460;28;20384;-65
2021/12/19 12:33:15;;;;;;;149.55;113.78;;;29.20;99.90;;;;;;5064894;28;20029;-65
2021/12/19 12:35:44;;;;;;;62.95;40.58;;;29.20;99.90;;;;;;5065255;28;20025;-66
2021/12/19 12:38:13;;;;;;;189.43;147.68;;;29.10;99.90;;;;;;5066761;28;20074;-66
2021/12/19 12:43:30;;;;;;;42.28;23.10;;;29.10;99.90;;;;;;5070607;28;20024;-65
2021/12/19 12:46:19;;;;;;;33.90;17.27;;;29.00;99.90;;;;;;5070460;28;20085;-66
2021/12/19 12:48:58;;;;;;;30.63;17.20;;;29.00;99.90;;;;;;5055265;28;20107;-65
2021/12/19 12:51:38;;;;;;;28.35;16.33;;;29.00;99.90;;;;;;5057104;28;20040;-66
2021/12/19 12:54:11;;;;;;;29.48;16.70;;;29.00;99.90;;;;;;5065993;28;20033;-65
2021/12/19 12:56:44;;;;;;;27.30;16.55;;;29.00;99.90;;;;;;5073006;28;20048;-66
2021/12/19 12:59:13;;;;;;;30.77;16.40;;;29.10;99.90;;;;;;5068980;28;20021;-66
2021/12/19 13:01:49;;;;;;;24.50;15.82;;;29.00;99.90;;;;;;5073282;28;20051;-67
2021/12/19 13:04:26;;;;;;;35.70;16.85;;;29.00;99.90;;;;;;5075156;28;20025;-65
2021/12/19 13:07:09;;;;;;;30.50;15.98;;;29.00;99.90;;;;;;5072975;28;20032;-66
2021/12/19 13:09:53;;;;;;;30.70;16.45;;;29.00;99.90;;;;;;5065100;28;20120;-66
2021/12/19 13:12:32;;;;;;;40.30;16.30;;;29.00;99.90;;;;;;5064909;28;20024;-67
2021/12/19 13:15:02;;;;;;;31.75;16.27;;;29.00;99.90;;;;;;5070326;28;20025;-67
2021/12/19 13:17:38;;;;;;;32.58;16.58;;;29.00;99.90;;;;;;5067879;28;20107;-68
2021/12/19 13:20:11;;;;;;;33.75;17.92;;;29.00;99.90;;;;;;5065351;28;20376;-67
2021/12/19 13:22:49;;;;;;;34.90;18.02;;;29.00;99.90;;;;;;5063438;28;20025;-66
2021/12/19 13:25:22;;;;;;;40.15;20.35;;;28.90;99.90;;;;;;5065695;28;20020;-67
2021/12/19 13:27:55;;;;;;;30.48;19.38;;;28.90;99.90;;;;;;5070850;28;20048;-66
2021/12/19 13:30:24;;;;;;;35.40;18.88;;;28.90;99.90;;;;;;5066734;28;20089;-67
2021/12/19 13:33:03;;;;;;;31.13;17.98;;;28.80;99.90;;;;;;5064973;28;20107;-66
2021/12/19 13:35:31;;;;;;;25.58;15.70;;;28.70;99.90;;;;;;5066483;28;20032;-66
2021/12/19 13:38:00;;;;;;;22.70;15.23;;;28.60;99.90;;;;;;5066417;28;20099;-65
2021/12/19 13:40:34;;;;;;;34.42;14.90;;;28.50;99.90;;;;;;5065044;28;20035;-65
2021/12/19 13:43:11;;;;;;;26.10;13.18;;;28.60;99.90;;;;;;5064090;28;20048;-68
2021/12/19 13:45:44;;;;;;;20.20;12.30;;;28.70;99.90;;;;;;5063798;28;20028;-66
2021/12/19 13:48:20;;;;;;;30.13;14.15;;;28.50;99.90;;;;;;5064215;28;20025;-67
2021/12/19 13:50:54;;;;;;;28.98;13.02;;;28.50;99.90;;;;;;5064157;28;20082;-68